Time;durP1;ratioP1;P1;durP2;ratioP2;P2;SDS_P1;SDS_P2;PMS_P1;PMS_P2;Temp;Humidity;BMP_temperature;BMP_pressure;BME280_temperature;BME280_humidity;BME280_pressure;Samples;Min_cycle;Max_cycle;Signal;HPM_P1;HPM_P2
2022/12/25 00:05:20;;;;;;;;;;;10.00;41.90;;;;;;5088253;28;19931;-84
2022/12/25 00:10:55;;;;;;;;;;;10.10;42.00;;;;;;5096672;28;20431;-77
2022/12/25 00:13:26;;;;;;;;;;;10.10;41.90;;;;;;5084132;28;19908;-77
2022/12/25 00:15:52;;;;;;;;;;;10.20;42.30;;;;;;5086447;28;19908;-77
2022/12/25 00:18:17;;;;;;;;;;;10.20;42.10;;;;;;5094739;28;19958;-77
2022/12/25 00:20:43;;;;;;;;;;;10.30;42.10;;;;;;5102340;28;20005;-77
2022/12/25 00:26:20;;;;;;;;;;;10.30;42.10;;;;;;5099416;28;20533;-76
2022/12/25 00:28:54;;;;;;;;;;;10.40;42.10;;;;;;5095582;28;19915;-77
2022/12/25 00:31:21;;;;;;;;;;;10.40;42.20;;;;;;5108985;28;20009;-76
2022/12/25 00:33:47;;;;;;;;;;;10.30;42.30;;;;;;5075719;28;20015;-77
2022/12/25 00:36:32;;;;;;;;;;;10.30;42.10;;;;;;5095587;28;19942;-77
2022/12/25 00:39:32;;;;;;;;;;;10.40;42.40;;;;;;5085287;28;19908;-83
2022/12/25 00:45:38;;;;;;;;;;;10.40;42.20;;;;;;5114675;28;20377;-84
2022/12/25 00:48:38;;;;;;;;;;;10.30;42.10;;;;;;5078890;28;19991;-84
2022/12/25 00:54:08;;;;;;;;;;;10.40;46.50;;;;;;5095712;28;19976;-83
2022/12/25 00:57:08;;;;;;;;;;;10.50;42.20;;;;;;5113721;28;19908;-83
2022/12/25 01:00:08;;;;;;;;;;;10.50;42.30;;;;;;5106462;28;20006;-83
2022/12/25 01:02:38;;;;;;;;;;;10.40;42.20;;;;;;5075463;28;20368;-84
2022/12/25 01:05:38;;;;;;;;;;;10.40;42.20;;;;;;5094923;28;19912;-84
2022/12/25 01:08:08;;;;;;;;;;;10.40;42.20;;;;;;5076525;28;19923;-84
2022/12/25 01:10:51;;;;;;;;;;;10.20;42.10;;;;;;5105619;28;19912;-78
2022/12/25 01:16:20;;;;;;;;;;;10.20;42.10;;;;;;5106748;28;19914;-77
2022/12/25 01:18:56;;;;;;;;;;;10.10;42.10;;;;;;5096303;28;19994;-76
2022/12/25 01:21:21;;;;;;;;;;;10.00;41.90;;;;;;5108047;28;19915;-76
2022/12/25 01:23:51;;;;;;;;;;;9.90;42.80;;;;;;5094637;28;19912;-77
2022/12/25 01:29:44;;;;;;;;;;;9.70;42.60;;;;;;5094667;28;19918;-77
2022/12/25 01:32:26;;;;;;;;;;;9.60;42.40;;;;;;5086629;28;19928;-77
2022/12/25 01:35:02;;;;;;;;;;;9.50;42.40;;;;;;5094258;28;19967;-76
2022/12/25 01:37:28;;;;;;;;;;;9.50;42.60;;;;;;5093435;28;19919;-77
2022/12/25 01:40:08;;;;;;;;;;;9.40;48.70;;;;;;5084582;28;19908;-83
2022/12/25 01:42:38;;;;;;;;;;;9.40;53.90;;;;;;5086375;28;19908;-84
2022/12/25 01:45:38;;;;;;;;;;;9.30;55.90;;;;;;5094800;28;19912;-84
2022/12/25 01:48:38;;;;;;;;;;;9.30;56.20;;;;;;5074772;28;20290;-83
2022/12/25 01:51:32;;;;;;;;;;;9.30;54.50;;;;;;5088766;28;19964;-83
2022/12/25 01:54:00;;;;;;;;;;;9.30;49.60;;;;;;5104082;28;19920;-83
2022/12/25 01:56:27;;;;;;;;;;;9.20;47.60;;;;;;5094474;28;20279;-77
2022/12/25 01:58:57;;;;;;;;;;;9.20;50.60;;;;;;5106134;28;19969;-77
2022/12/25 02:01:22;;;;;;;;;;;9.20;55.70;;;;;;5101758;28;19908;-77
2022/12/25 02:03:52;;;;;;;;;;;9.20;59.00;;;;;;5092156;28;19912;-77
2022/12/25 02:06:18;;;;;;;;;;;9.20;60.70;;;;;;5094246;28;19909;-76
2022/12/25 02:08:50;;;;;;;;;;;9.30;61.00;;;;;;5100551;28;19998;-76
2022/12/25 02:14:27;;;;;;;;;;;9.30;59.80;;;;;;4992645;28;20001;-76
2022/12/25 02:16:58;;;;;;;;;;;9.20;57.60;;;;;;5011109;28;20536;-77
2022/12/25 02:22:50;;;;;;;;;;;9.20;64.50;;;;;;5003427;28;19915;-76
2022/12/25 02:28:44;;;;;;;;;;;9.20;61.90;;;;;;5003812;28;19960;-83
2022/12/25 02:31:40;;;;;;;;;;;9.10;56.10;;;;;;5015569;28;19951;-83
2022/12/25 02:34:38;;;;;;;;;;;9.10;47.50;;;;;;5010001;28;20422;-83
2022/12/25 02:37:38;;;;;;;;;;;9.10;42.00;;;;;;5015935;28;19914;-84
2022/12/25 02:40:13;;;;;;;;;;;9.10;42.10;;;;;;5012327;28;20428;-83
2022/12/25 03:07:08;;;;;;;;;;;9.00;42.00;;;;;;5035018;28;20395;-83
2022/12/25 03:12:45;;;;;;;;;;;9.00;42.00;;;;;;5094354;28;19919;-84
2022/12/25 03:18:38;;;;;;;;;;;8.90;41.90;;;;;;5108157;28;19958;-84
2022/12/25 03:27:11;;;;;;;;;;;8.80;41.80;;;;;;5034482;28;20320;-77
2022/12/25 03:32:44;;;;;;;;;;;8.80;41.80;;;;;;5014549;28;19928;-76
2022/12/25 03:35:21;;;;;;;;;;;8.80;41.80;;;;;;5030831;28;19917;-76
2022/12/25 04:41:38;;;;;;;;;;;9.20;42.30;;;;;;5098939;28;19915;-78
2022/12/25 04:44:08;;;;;;;;;;;9.20;42.10;;;;;;5096354;28;19912;-77
2022/12/25 04:49:37;;;;;;;;;;;9.30;42.30;;;;;;5074738;28;19916;-76
2022/12/25 04:52:14;;;;;;;;;;;9.30;42.20;;;;;;5092273;28;19912;-76
2022/12/25 04:54:44;;;;;;;;;;;9.30;42.50;;;;;;5100980;28;19911;-76
2022/12/25 05:03:16;;;;;;;;;;;9.30;42.30;;;;;;5105465;28;20351;-84
2022/12/25 05:08:44;;;;;;;;;;;9.40;42.30;;;;;;5099534;28;19950;-84
2022/12/25 05:11:32;;;;;;;;;;;9.40;42.30;;;;;;5102728;28;19956;-84
2022/12/25 05:17:00;;;;;;;;;;;9.40;46.40;;;;;;5094726;28;19916;-84
2022/12/25 05:28:44;;;;;;;;;;;9.40;42.30;;;;;;5090051;28;20270;-77
2022/12/25 05:31:14;;;;;;;;;;;9.50;42.30;;;;;;5099956;28;19970;-76
2022/12/25 05:33:40;;;;;;;;;;;9.40;42.30;;;;;;5090454;28;19915;-76
2022/12/25 05:36:09;;;;;;;;;;;9.50;42.60;;;;;;5101793;28;20325;-76
2022/12/25 05:38:50;;;;;;;;;;;9.50;42.40;;;;;;5108090;28;19943;-77
2022/12/25 05:41:20;;;;;;;;;;;9.50;42.40;;;;;;5103325;28;19912;-76
2022/12/25 05:49:52;;;;;;;;;;;9.50;42.50;;;;;;5095027;28;19915;-84
2022/12/25 05:52:29;;;;;;;;;;;9.60;42.40;;;;;;5076055;28;19912;-84
2022/12/25 05:54:55;;;;;;;;;;;9.50;42.40;;;;;;5076957;28;19908;-84
2022/12/25 05:57:30;;;;;;;;;;;9.60;42.60;;;;;;5073186;28;20325;-77
2022/12/25 05:59:56;;;;;;;;;;;9.60;42.60;;;;;;5081534;28;20348;-77
2022/12/25 06:02:22;;;;;;;;;;;9.50;42.40;;;;;;5095460;28;19957;-76
2022/12/25 06:04:48;;;;;;;;;;;9.50;42.40;;;;;;5109259;28;20344;-76
2022/12/25 06:07:13;;;;;;;;;;;9.50;42.30;;;;;;5111867;28;19908;-76
2022/12/25 06:09:44;;;;;;;;;;;9.60;42.50;;;;;;5088306;28;19912;-76
2022/12/25 06:12:14;;;;;;;;;;;9.60;42.50;;;;;;5111620;28;19916;-78
2022/12/25 06:15:08;;;;;;;;;;;9.60;42.50;;;;;;5099373;28;19919;-77
2022/12/25 06:17:38;;;;;;;;;;;9.60;42.70;;;;;;5097794;28;19912;-76
2022/12/25 06:20:08;;;;;;;;;;;9.50;40.00;;;;;;5117922;28;19912;-77
2022/12/25 06:22:38;;;;;;;;;;;9.50;42.40;;;;;;5098832;28;19912;-76
2022/12/25 06:25:14;;;;;;;;;;;9.50;42.40;;;;;;5084827;28;20348;-76
2022/12/25 06:33:46;;;;;;;;;;;9.50;42.30;;;;;;5097764;28;19920;-83
2022/12/25 06:39:44;;;;;;;;;;;9.40;42.50;;;;;;5095010;28;20005;-82
2022/12/25 06:42:26;;;;;;;;;;;9.40;42.30;;;;;;5086725;28;19912;-78
2022/12/25 06:44:56;;;;;;;;;;;9.40;42.30;;;;;;5102881;28;20305;-73
2022/12/25 06:47:26;;;;;;;;;;;9.40;42.30;;;;;;5092971;28;19912;-74
2022/12/25 06:50:03;;;;;;;;;;;9.50;42.60;;;;;;5089089;28;19908;-74
2022/12/25 06:52:30;;;;;;;;;;;9.50;42.60;;;;;;5113899;28;21938;-73
2022/12/25 06:54:56;;;;;;;;;;;9.50;42.40;;;;;;5110479;28;19908;-73
2022/12/25 06:57:21;;;;;;;;;;;9.50;42.40;;;;;;5095439;28;19915;-74
2022/12/25 06:59:47;;;;;;;;;;;9.60;42.60;;;;;;5077577;28;19912;-74
2022/12/25 07:02:15;;;;;;;;;;;9.60;42.50;;;;;;5096741;28;19909;-77
2022/12/25 07:04:44;;;;;;;;;;;9.60;42.50;;;;;;5094655;28;19952;-74
2022/12/25 07:07:22;;;;;;;;;;;9.60;42.70;;;;;;5085450;28;19961;-74
2022/12/25 07:09:50;;;;;;;;;;;9.60;42.50;;;;;;5097531;28;20018;-74
2022/12/25 07:12:20;;;;;;;;;;;9.70;42.80;;;;;;5096278;28;19923;-74
2022/12/25 07:14:49;;;;;;;;;;;9.70;42.80;;;;;;5105017;28;19908;-74
2022/12/25 07:17:21;;;;;;;;;;;9.70;42.80;;;;;;5097196;28;19948;-74
2022/12/25 07:19:46;;;;;;;;;;;9.70;42.60;;;;;;5097158;28;20433;-74
2022/12/25 07:22:14;;;;;;;;;;;9.70;42.60;;;;;;5096247;28;19962;-74
2022/12/25 07:24:40;;;;;;;;;;;9.80;42.80;;;;;;5093732;28;19918;-74
2022/12/25 07:27:14;;;;;;;;;;;9.80;42.60;;;;;;5095144;28;19916;-73
2022/12/25 07:29:40;;;;;;;;;;;9.80;42.70;;;;;;5096356;28;19916;-74
2022/12/25 07:32:05;;;;;;;;;;;9.80;46.90;;;;;;5069539;28;19943;-74
2022/12/25 07:34:31;;;;;;;;;;;9.90;42.80;;;;;;5090956;28;19961;-73
2022/12/25 07:38:37;;;;;;;;;;;9.90;39.50;;;;;;5092457;28;20007;-74
2022/12/25 07:41:03;;;;;;;;;;;9.90;42.80;;;;;;5070205;28;19948;-74
2022/12/25 07:43:29;;;;;;;;;;;9.90;42.80;;;;;;5064457;28;20380;-74
2022/12/25 07:45:56;;;;;;;;;;;9.90;42.80;;;;;;5065995;28;19948;-74
2022/12/25 07:48:21;;;;;;;;;;;10.00;41.80;;;;;;5061687;28;20379;-75
2022/12/25 07:50:47;;;;;;;;;;;10.00;41.80;;;;;;5070170;28;19921;-75
2022/12/25 07:53:15;;;;;;;;;;;10.00;41.80;;;;;;5069124;28;20010;-78
2022/12/25 07:56:17;;;;;;;;;;;10.00;41.80;;;;;;5053349;28;19913;-78
2022/12/25 07:58:57;;;;;;;;;;;10.10;42.10;;;;;;5064250;28;20288;-79
2022/12/25 08:04:25;;;;;;;;;;;10.20;42.30;;;;;;5052776;28;19924;-79
2022/12/25 08:06:50;;;;;;;;;;;10.20;41.90;;;;;;5064105;28;19909;-78
2022/12/25 08:09:27;;;;;;;;;;;10.20;40.20;;;;;;5073037;28;19916;-78
2022/12/25 08:11:57;;;;;;;;;;;10.20;42.00;;;;;;5052645;28;19920;-79
2022/12/25 08:14:22;;;;;;;;;;;10.30;42.10;;;;;;5068464;28;19950;-78
2022/12/25 08:17:03;;;;;;;;;;;10.40;42.20;;;;;;5068218;28;19916;-78
2022/12/25 08:19:39;;;;;;;;;;;10.40;42.20;;;;;;5067928;28;19917;-79
2022/12/25 08:22:08;;;;;;;;;;;10.50;42.30;;;;;;5068501;28;19909;-78
2022/12/25 08:25:08;;;;;;;;;;;10.50;42.20;;;;;;5067903;28;19996;-79
2022/12/25 08:27:50;;;;;;;;;;;10.60;42.40;;;;;;5065764;28;20392;-83
2022/12/25 08:30:16;;;;;;;;;;;10.70;31.70;;;;;;5062408;28;19916;-73
2022/12/25 08:32:42;;;;;;;;;;;10.80;33.10;;;;;;5061375;28;20292;-74
2022/12/25 08:35:15;;;;;;;;;;;10.90;31.60;;;;;;5064368;28;19913;-76
2022/12/25 08:37:40;;;;;;;;;;;10.90;30.40;;;;;;5068604;28;20008;-70
2022/12/25 08:40:06;;;;;;;;;;;11.00;27.90;;;;;;5067714;28;20007;-70
2022/12/25 08:42:32;;;;;;;;;;;11.00;27.70;;;;;;5058704;28;19913;-70
2022/12/25 08:44:57;;;;;;;;;;;11.00;27.50;;;;;;5068873;28;20288;-70
2022/12/25 08:47:23;;;;;;;;;;;11.00;26.50;;;;;;5064188;28;19913;-71
2022/12/25 08:49:49;;;;;;;;;;;11.00;26.40;;;;;;5052989;28;19931;-71
2022/12/25 08:52:15;;;;;;;;;;;11.00;23.20;;;;;;5055322;28;20003;-71
2022/12/25 08:54:40;;;;;;;;;;;11.00;21.80;;;;;;5049323;28;19972;-71
2022/12/25 08:57:06;;;;;;;;;;;11.00;20.30;;;;;;5049943;28;19917;-71
2022/12/25 08:59:32;;;;;;;;;;;11.00;16.70;;;;;;5060240;28;20323;-71
2022/12/25 09:01:57;;;;;;;;;;;11.00;16.30;;;;;;5056859;28;19919;-70
2022/12/25 09:07:26;;;;;;;;;;;11.00;18.00;;;;;;5053747;28;19919;-84
2022/12/25 09:22:32;;;;;;;;;;;11.00;26.00;;;;;;5060834;28;19917;-83
2022/12/25 09:28:01;;;;;;;;;;;11.00;22.50;;;;;;5036277;28;19916;-84
2022/12/25 09:30:39;;;;;;;;;;;11.10;22.40;;;;;;5051606;28;20007;-83
2022/12/25 09:33:26;;;;;;;;;;;11.10;22.60;;;;;;5036223;28;19909;-83
2022/12/25 09:36:06;;;;;;;;;;;11.20;21.80;;;;;;5051925;28;19913;-83
2022/12/25 09:38:32;;;;;;;;;;;11.20;21.00;;;;;;5041594;28;20316;-83
2022/12/25 09:47:32;;;;;;;;;;;11.30;17.20;;;;;;5052252;28;19959;-80
2022/12/25 09:53:04;;;;;;;;;;;11.30;17.60;;;;;;5074506;28;19995;-83
2022/12/25 09:58:33;;;;;;;;;;;11.40;17.00;;;;;;5055464;28;19927;-83
2022/12/25 10:04:09;;;;;;;;;;;11.50;16.90;;;;;;5035757;28;20327;-82
2022/12/25 10:06:45;;;;;;;;;;;11.50;16.40;;;;;;5039316;28;19909;-82
2022/12/25 10:09:45;;;;;;;;;;;11.60;15.90;;;;;;5055352;28;19909;-83
2022/12/25 10:12:38;;;;;;;;;;;11.60;16.80;;;;;;5035380;28;19959;-83
2022/12/25 10:18:20;;;;;;;;;;;11.90;9.70;;;;;;5048200;28;19920;-83
2022/12/25 10:20:50;;;;;;;;;;;12.00;3.40;;;;;;5046606;28;19912;-83
2022/12/25 10:26:20;;;;;;;;;;;12.20;1.00;;;;;;5048485;28;19962;-83
2022/12/25 10:32:15;;;;;;;;;;;12.30;1.00;;;;;;5034840;28;19971;-83
2022/12/25 10:35:09;;;;;;;;;;;12.40;1.00;;;;;;5053504;28;20319;-82
2022/12/25 10:37:39;;;;;;;;;;;12.40;1.00;;;;;;5043239;28;19960;-83
2022/12/25 10:43:14;;;;;;;;;;;12.50;1.00;;;;;;5042086;28;19924;-83
2022/12/25 10:46:08;;;;;;;;;;;12.60;1.00;;;;;;5052935;28;19920;-83
2022/12/25 10:48:59;;;;;;;;;;;12.70;1.00;;;;;;5046779;28;19909;-82
2022/12/25 10:51:32;;;;;;;;;;;12.70;1.00;;;;;;5035005;28;20268;-78
2022/12/25 10:53:58;;;;;;;;;;;12.80;1.00;;;;;;5036662;28;19913;-78
2022/12/25 10:56:27;;;;;;;;;;;12.90;1.00;;;;;;5043964;28;19913;-78
2022/12/25 10:59:14;;;;;;;;;;;12.90;1.00;;;;;;5050135;28;19920;-78
2022/12/25 11:01:45;;;;;;;;;;;12.90;1.00;;;;;;5054181;28;19939;-78
2022/12/25 11:04:38;;;;;;;;;;;13.00;1.00;;;;;;5041933;28;19915;-82
2022/12/25 11:13:18;;;;;;;;;;;13.40;1.00;;;;;;5037159;28;19920;-82
2022/12/25 11:16:11;;;;;;;;;;;13.40;1.00;;;;;;5042524;28;19916;-82
2022/12/25 11:21:35;;;;;;;;;;;13.20;1.00;;;;;;5012635;28;19910;-79
2022/12/25 11:24:29;;;;;;;;;;;13.20;1.00;;;;;;5012285;28;19910;-78
2022/12/25 11:27:31;;;;;;;;;;;13.30;1.00;;;;;;5006785;28;20254;-78
2022/12/25 11:30:02;;;;;;;;;;;13.30;1.00;;;;;;4969598;28;20042;-79
2022/12/25 11:32:47;;;;;;;;;;;13.30;1.00;;;;;;4956923;28;20001;-78
2022/12/25 11:35:16;;;;;;;;;;;13.20;1.00;;;;;;4962920;28;19954;-79
2022/12/25 11:37:57;;;;;;;;;;;13.20;1.00;;;;;;4953651;29;20020;-79
2022/12/25 11:40:33;;;;;;;;;;;13.10;1.00;;;;;;4953880;29;20359;-79
2022/12/25 11:43:01;;;;;;;;;;;13.10;1.00;;;;;;4961500;28;20384;-79
2022/12/25 11:45:30;;;;;;;;;;;13.10;1.00;;;;;;4960081;28;19965;-78
2022/12/25 11:48:29;;;;;;;;;;;13.10;1.00;;;;;;4964555;28;20363;-77
2022/12/25 11:54:07;;;;;;;;;;;13.20;1.00;;;;;;4896740;29;19918;-80
2022/12/25 11:56:33;;;;;;;;;;;13.20;1.00;;;;;;4862573;29;20324;-79
2022/12/25 11:59:37;;;;;;;;;;;13.20;1.00;;;;;;4877975;29;19912;-79
2022/12/25 12:02:27;;;;;;;;;;;13.10;1.00;;;;;;4929515;29;19946;-79
2022/12/25 12:07:59;;;;;;;;;;;13.30;1.00;;;;;;4937801;29;19918;-84
2022/12/25 12:13:40;;;;;;;;;;;13.40;1.00;;;;;;4934730;29;19945;-85
2022/12/25 12:22:22;;;;;;;;;;;13.70;1.00;;;;;;4934870;29;19914;-86
2022/12/25 12:27:55;;;;;;;;;;;13.80;1.00;;;;;;4973782;28;19942;-85
2022/12/25 12:30:24;;;;;;;;;;;13.80;1.00;;;;;;4954679;28;20001;-83
2022/12/25 12:35:53;;;;;;;;;;;13.70;1.00;;;;;;5056980;28;19916;-82
2022/12/25 12:38:27;;;;;;;;;;;13.60;1.00;;;;;;5055569;28;20004;-79
2022/12/25 12:40:57;;;;;;;;;;;13.60;1.00;;;;;;5052147;28;19917;-79
2022/12/25 12:43:41;;;;;;;;;;;13.70;1.00;;;;;;5061554;28;19912;-79
2022/12/25 12:46:20;;;;;;;;;;;13.70;1.00;;;;;;5049130;28;20468;-79
2022/12/25 12:52:12;;;;;;;;;;;13.70;1.00;;;;;;5047316;28;19962;-79
2022/12/25 12:55:12;;;;;;;;;;;13.70;1.00;;;;;;5014693;28;19910;-79
2022/12/25 12:57:40;;;;;;;;;;;13.70;1.00;;;;;;5014782;28;19925;-79
2022/12/25 13:00:11;;;;;;;;;;;13.80;1.00;;;;;;5014719;28;19917;-78
2022/12/25 13:02:51;;;;;;;;;;;13.70;1.00;;;;;;5014773;28;19909;-78
2022/12/25 13:05:51;;;;;;;;;;;13.60;1.00;;;;;;5014503;28;20328;-78
2022/12/25 13:08:37;;;;;;;;;;;13.70;1.00;;;;;;4995350;28;19918;-81
2022/12/25 13:11:20;;;;;;;;;;;13.70;1.00;;;;;;5014584;28;19910;-80
2022/12/25 13:14:09;;;;;;;;;;;13.90;1.00;;;;;;4997945;28;19937;-79
2022/12/25 13:16:41;;;;;;;;;;;14.00;1.00;;;;;;5014168;28;19914;-79
2022/12/25 13:19:22;;;;;;;;;;;14.00;1.00;;;;;;5014439;28;19910;-78
2022/12/25 13:21:58;;;;;;;;;;;14.00;1.00;;;;;;4995217;28;19918;-78
2022/12/25 13:24:29;;;;;;;;;;;13.90;1.00;;;;;;5005302;28;20420;-80
2022/12/25 13:26:58;;;;;;;;;;;13.80;1.00;;;;;;5014238;28;19948;-79
2022/12/25 13:29:39;;;;;;;;;;;13.70;1.00;;;;;;5014492;28;19909;-81
2022/12/25 13:32:07;;;;;;;;;;;13.60;1.00;;;;;;5037625;28;19916;-80
2022/12/25 13:34:40;;;;;;;;;;;13.60;1.00;;;;;;5070234;28;19913;-80
2022/12/25 13:37:12;;;;;;;;;;;13.50;1.00;;;;;;5047295;28;20419;-80
2022/12/25 13:39:44;;;;;;;;;;;13.40;1.00;;;;;;5042159;28;19990;-81
2022/12/25 13:42:13;;;;;;;;;;;13.40;1.00;;;;;;5054044;28;19913;-81
2022/12/25 13:44:41;;;;;;;;;;;13.40;1.00;;;;;;5038205;28;19913;-82
2022/12/25 13:50:33;;;;;;;;;;;13.40;1.00;;;;;;5049865;28;20391;-81
2022/12/25 13:53:12;;;;;;;;;;;13.40;1.00;;;;;;5038933;28;19909;-76
2022/12/25 13:56:06;;;;;;;;;;;13.40;1.00;;;;;;5047376;28;19927;-80
2022/12/25 13:58:33;;;;;;;;;;;13.30;1.00;;;;;;5038799;28;20277;-77
2022/12/25 14:01:00;;;;;;;;;;;13.20;1.00;;;;;;5048559;28;19917;-78
2022/12/25 14:03:45;;;;;;;;;;;13.10;1.00;;;;;;5043770;28;19908;-77
2022/12/25 14:06:23;;;;;;;;;;;13.00;1.00;;;;;;5055289;28;19948;-77
2022/12/25 14:09:09;;;;;;;;;;;13.00;1.00;;;;;;5056570;28;19909;-78
2022/12/25 14:11:41;;;;;;;;;;;13.00;1.00;;;;;;5054109;28;19909;-77
2022/12/25 14:14:20;;;;;;;;;;;12.90;1.00;;;;;;5052888;28;19908;-77
2022/12/25 14:17:15;;;;;;;;;;;12.90;1.00;;;;;;5057792;28;19920;-77
2022/12/25 14:19:54;;;;;;;;;;;12.90;1.00;;;;;;5049424;28;19959;-76
2022/12/25 14:22:20;;;;;;;;;;;12.90;1.00;;;;;;5048817;28;19981;-73
2022/12/25 14:24:46;;;;;;;;;;;12.80;1.00;;;;;;5051198;28;20360;-73
2022/12/25 14:27:18;;;;;;;;;;;12.80;1.00;;;;;;5048890;28;19913;-73
2022/12/25 14:29:47;;;;;;;;;;;12.80;1.00;;;;;;5046732;28;19920;-73
2022/12/25 14:32:17;;;;;;;;;;;12.80;1.00;;;;;;5052425;28;19913;-74
2022/12/25 14:34:46;;;;;;;;;;;12.80;1.00;;;;;;5041493;28;19934;-73
2022/12/25 14:37:14;;;;;;;;;;;12.70;1.00;;;;;;5050171;28;20356;-74
2022/12/25 14:39:52;;;;;;;;;;;12.70;1.00;;;;;;5038454;28;19917;-73
2022/12/25 14:42:21;;;;;;;;;;;12.60;1.00;;;;;;5042824;28;19921;-75
2022/12/25 14:44:57;;;;;;;;;;;12.60;1.00;;;;;;5049388;28;19927;-74
2022/12/25 14:47:23;;;;;;;;;;;12.50;1.00;;;;;;5047390;28;19913;-74
2022/12/25 14:49:49;;;;;;;;;;;12.50;1.00;;;;;;5050861;28;20375;-84
2022/12/25 14:55:23;;;;;;;;;;;12.40;1.00;;;;;;5048081;28;19970;-82
2022/12/25 14:58:04;;;;;;;;;;;12.30;1.00;;;;;;5039582;28;20028;-85
2022/12/25 15:00:37;;;;;;;;;;;12.20;1.00;;;;;;5050384;28;19913;-75
2022/12/25 15:03:16;;;;;;;;;;;12.20;1.00;;;;;;5043661;28;19913;-76
2022/12/25 15:06:12;;;;;;;;;;;12.10;1.00;;;;;;5037314;28;19988;-75
2022/12/25 15:08:40;;;;;;;;;;;12.10;1.00;;;;;;5013170;28;20016;-75
2022/12/25 15:11:10;;;;;;;;;;;12.00;1.00;;;;;;5011233;28;19964;-78
2022/12/25 15:13:35;;;;;;;;;;;12.00;1.00;;;;;;5019478;28;20589;-76
2022/12/25 15:16:21;;;;;;;;;;;12.00;1.00;;;;;;5010992;28;19914;-76
2022/12/25 15:18:52;;;;;;;;;;;11.90;1.00;;;;;;5004793;28;19918;-77
2022/12/25 15:21:24;;;;;;;;;;;11.80;1.00;;;;;;4994610;28;19918;-77
2022/12/25 15:23:53;;;;;;;;;;;11.80;1.00;;;;;;5013449;28;19920;-75
2022/12/25 15:26:18;;;;;;;;;;;11.70;1.00;;;;;;5020369;28;19917;-75
2022/12/25 15:28:44;;;;;;;;;;;11.70;1.00;;;;;;5015241;28;20436;-75
2022/12/25 15:31:20;;;;;;;;;;;11.60;1.00;;;;;;5008733;28;19914;-75
2022/12/25 15:33:47;;;;;;;;;;;11.60;1.00;;;;;;5018951;28;19963;-76
2022/12/25 15:36:12;;;;;;;;;;;11.60;1.00;;;;;;5014545;28;19913;-76
2022/12/25 15:38:38;;;;;;;;;;;11.50;1.00;;;;;;5011704;28;19921;-75
2022/12/25 15:41:08;;;;;;;;;;;11.40;1.00;;;;;;5012327;28;20404;-75
2022/12/25 15:43:33;;;;;;;;;;;11.40;1.00;;;;;;5010581;28;19986;-75
2022/12/25 15:46:04;;;;;;;;;;;11.30;1.00;;;;;;5039955;28;19998;-75
2022/12/25 15:48:31;;;;;;;;;;;11.30;1.00;;;;;;5042996;28;19912;-76
2022/12/25 15:51:03;;;;;;;;;;;11.20;1.00;;;;;;5050914;28;19920;-75
2022/12/25 15:53:29;;;;;;;;;;;11.20;1.00;;;;;;5045174;28;20291;-75
2022/12/25 15:55:54;;;;;;;;;;;11.20;1.00;;;;;;5030829;28;19921;-75
2022/12/25 15:58:20;;;;;;;;;;;11.10;1.00;;;;;;5034737;28;20367;-75
2022/12/25 16:00:46;;;;;;;;;;;11.10;1.00;;;;;;5039366;28;19944;-75
2022/12/25 16:03:16;;;;;;;;;;;11.00;1.00;;;;;;5048456;28;19921;-74
2022/12/25 16:05:46;;;;;;;;;;;11.00;1.00;;;;;;5046315;28;20000;-74
2022/12/25 16:08:11;;;;;;;;;;;11.00;1.00;;;;;;5047316;28;19920;-74
2022/12/25 16:10:37;;;;;;;;;;;11.00;1.00;;;;;;5043121;28;19909;-75
2022/12/25 16:13:10;;;;;;;;;;;10.90;1.00;;;;;;5050645;28;19913;-74
2022/12/25 16:15:36;;;;;;;;;;;10.90;1.00;;;;;;5051450;28;20364;-74
2022/12/25 16:18:01;;;;;;;;;;;10.90;1.00;;;;;;5057016;28;19913;-74
2022/12/25 16:20:27;;;;;;;;;;;10.90;1.00;;;;;;5044111;28;19921;-75
2022/12/25 16:22:53;;;;;;;;;;;10.90;1.00;;;;;;5042004;28;19913;-75
2022/12/25 16:25:22;;;;;;;;;;;10.90;2.30;;;;;;5050043;28;19946;-75
2022/12/25 16:27:52;;;;;;;;;;;10.80;3.30;;;;;;5047966;28;19917;-75
2022/12/25 16:30:34;;;;;;;;;;;10.80;4.50;;;;;;5044157;28;19913;-75
2022/12/25 16:33:10;;;;;;;;;;;10.70;5.70;;;;;;5051505;28;19913;-76
2022/12/25 16:35:40;;;;;;;;;;;10.60;6.70;;;;;;5047160;28;19961;-75
2022/12/25 16:38:10;;;;;;;;;;;10.60;8.10;;;;;;5060794;28;19928;-75
2022/12/25 16:40:40;;;;;;;;;;;10.60;9.70;;;;;;5041292;28;19913;-75
2022/12/25 16:43:05;;;;;;;;;;;10.50;10.10;;;;;;5041939;28;20013;-76
2022/12/25 16:45:35;;;;;;;;;;;10.50;10.10;;;;;;5060004;28;19982;-75
2022/12/25 16:48:01;;;;;;;;;;;10.40;11.30;;;;;;5048204;28;20361;-75
2022/12/25 16:50:27;;;;;;;;;;;10.40;11.80;;;;;;5054471;28;19919;-75
2022/12/25 16:52:52;;;;;;;;;;;10.40;12.10;;;;;;5051531;28;19916;-75
2022/12/25 16:55:35;;;;;;;;;;;10.40;12.30;;;;;;5056405;28;19923;-75
2022/12/25 16:58:01;;;;;;;;;;;10.30;12.70;;;;;;5037069;28;20393;-74
2022/12/25 17:00:27;;;;;;;;;;;10.30;13.70;;;;;;5045749;28;19920;-74
2022/12/25 17:02:58;;;;;;;;;;;10.30;14.10;;;;;;5047793;28;19916;-75
2022/12/25 17:05:34;;;;;;;;;;;10.20;14.60;;;;;;5046660;28;19917;-74
2022/12/25 17:08:04;;;;;;;;;;;10.20;16.00;;;;;;5052856;28;19920;-74
2022/12/25 17:10:31;;;;;;;;;;;10.10;17.00;;;;;;5052433;28;19947;-74
2022/12/25 17:12:56;;;;;;;;;;;10.10;18.50;;;;;;5051802;28;19947;-76
2022/12/25 17:15:22;;;;;;;;;;;10.00;23.60;;;;;;5047004;28;19927;-75
2022/12/25 17:17:48;;;;;;;;;;;10.00;26.30;;;;;;5047964;28;19920;-77
2022/12/25 17:20:13;;;;;;;;;;;10.00;27.80;;;;;;5053053;28;19913;-75
2022/12/25 17:22:39;;;;;;;;;;;10.00;28.40;;;;;;5049204;28;19975;-75
2022/12/25 17:25:05;;;;;;;;;;;10.00;27.90;;;;;;5053458;28;20272;-75
2022/12/25 17:27:34;;;;;;;;;;;10.00;26.80;;;;;;5048883;28;20003;-74
2022/12/25 17:29:59;;;;;;;;;;;10.00;26.40;;;;;;5051875;28;19919;-75
2022/12/25 17:35:35;;;;;;;;;;;9.90;26.00;;;;;;5047201;28;19923;-79
2022/12/25 17:38:01;;;;;;;;;;;9.90;25.50;;;;;;5037805;28;20365;-81
2022/12/25 17:40:28;;;;;;;;;;;9.90;25.20;;;;;;5037389;28;19966;-76
2022/12/25 17:42:54;;;;;;;;;;;9.90;25.00;;;;;;5040493;28;19913;-85
2022/12/25 17:45:22;;;;;;;;;;;9.90;25.40;;;;;;5047630;28;20387;-75
2022/12/25 17:47:56;;;;;;;;;;;9.90;26.40;;;;;;5041636;28;19913;-76
2022/12/25 17:50:24;;;;;;;;;;;9.80;28.00;;;;;;5051611;28;20057;-77
2022/12/25 17:53:10;;;;;;;;;;;9.80;30.00;;;;;;5038356;28;20323;-87
2022/12/25 17:55:40;;;;;;;;;;;9.80;30.60;;;;;;5043765;28;19920;-80
2022/12/25 17:58:11;;;;;;;;;;;9.80;32.10;;;;;;5049745;28;20357;-81
2022/12/25 18:03:46;;;;;;;;;;;9.80;39.70;;;;;;5045033;28;19920;-81
2022/12/25 18:06:34;;;;;;;;;;;9.80;42.70;;;;;;5045011;28;20414;-75
2022/12/25 18:09:05;;;;;;;;;;;9.80;42.60;;;;;;5054457;28;19966;-77
2022/12/25 18:11:36;;;;;;;;;;;9.80;42.70;;;;;;5041531;28;19959;-75
2022/12/25 18:14:03;;;;;;;;;;;9.80;42.60;;;;;;5042798;28;19913;-75
2022/12/25 18:16:53;;;;;;;;;;;9.80;42.60;;;;;;5046652;28;19913;-80
2022/12/25 18:19:29;;;;;;;;;;;9.90;42.70;;;;;;5042872;28;20008;-79
2022/12/25 18:21:59;;;;;;;;;;;9.90;42.90;;;;;;5044890;28;19915;-80
2022/12/25 18:24:28;;;;;;;;;;;9.80;42.60;;;;;;5055647;28;19960;-79
2022/12/25 18:27:28;;;;;;;;;;;9.90;42.80;;;;;;5055230;28;20000;-80
2022/12/25 18:29:54;;;;;;;;;;;9.80;42.80;;;;;;5054633;28;20000;-78
2022/12/25 18:32:21;;;;;;;;;;;9.90;42.70;;;;;;5052299;28;19944;-79
2022/12/25 18:34:50;;;;;;;;;;;9.90;42.80;;;;;;5039638;28;20364;-80
2022/12/25 18:37:16;;;;;;;;;;;9.90;42.70;;;;;;5053284;28;20265;-78
2022/12/25 18:39:59;;;;;;;;;;;9.90;42.80;;;;;;5051069;28;19962;-79
2022/12/25 18:42:42;;;;;;;;;;;9.90;42.80;;;;;;5047960;28;20003;-80
2022/12/25 18:45:28;;;;;;;;;;;9.90;42.80;;;;;;5047426;28;19909;-84
2022/12/25 18:47:54;;;;;;;;;;;10.00;41.90;;;;;;5052830;28;19995;-80
2022/12/25 18:50:23;;;;;;;;;;;10.00;41.90;;;;;;5043133;28;19998;-80
2022/12/25 18:55:51;;;;;;;;;;;10.10;42.00;;;;;;5042674;28;20378;-83
2022/12/25 19:01:21;;;;;;;;;;;10.00;57.90;;;;;;5041668;28;19955;-83
2022/12/25 19:03:47;;;;;;;;;;;10.10;71.70;;;;;;5047324;28;20012;-82
2022/12/25 19:06:21;;;;;;;;;;;10.20;74.00;;;;;;5047144;28;20282;-82
2022/12/25 19:08:47;;;;;;;;;;;10.20;76.70;;;;;;5038519;28;19916;-78
2022/12/25 19:11:28;;;;;;;;;;;10.30;75.70;;;;;;5057798;28;19913;-78
2022/12/25 19:14:11;;;;;;;;;;;10.40;72.00;;;;;;5046775;28;19909;-78
2022/12/25 19:16:41;;;;;;;;;;;10.40;71.70;;;;;;5054061;28;19908;-79
2022/12/25 19:19:11;;;;;;;;;;;10.40;71.80;;;;;;5054156;28;19951;-78
2022/12/25 19:21:50;;;;;;;;;;;10.50;73.80;;;;;;5039240;28;20357;-78
2022/12/25 19:27:22;;;;;;;;;;;10.60;68.40;;;;;;5033630;28;20387;-81
2022/12/25 19:29:47;;;;;;;;;;;10.70;65.70;;;;;;5037131;28;19953;-83
2022/12/25 19:32:22;;;;;;;;;;;10.70;63.30;;;;;;5034126;28;19910;-83
2022/12/25 19:35:11;;;;;;;;;;;10.80;57.30;;;;;;5045393;28;19913;-82
2022/12/25 19:37:53;;;;;;;;;;;10.70;55.80;;;;;;5051016;28;20016;-81
2022/12/25 19:40:37;;;;;;;;;;;10.70;52.40;;;;;;5047572;28;19993;-83
2022/12/25 19:43:11;;;;;;;;;;;10.70;56.10;;;;;;5033244;28;19971;-76
2022/12/25 19:45:36;;;;;;;;;;;10.80;58.60;;;;;;5049328;28;19909;-76